createdAt,value
2019-04-05T00:01:06.970Z,8.50
2019-04-05T00:03:36.412Z,8.50
2019-04-05T00:06:06.002Z,8.40
2019-04-05T00:08:35.515Z,8.40
2019-04-05T00:11:05.278Z,8.50
2019-04-05T00:13:34.824Z,8.60
2019-04-05T00:16:04.442Z,8.50
2019-04-05T00:18:34.143Z,8.50
2019-04-05T00:21:03.700Z,8.50
2019-04-05T00:23:33.181Z,8.50
2019-04-05T00:26:02.699Z,8.50
2019-04-05T00:28:32.158Z,8.40
2019-04-05T00:31:03.149Z,8.40
2019-04-05T00:33:32.592Z,8.30
2019-04-05T00:36:02.054Z,8.30
2019-04-05T00:38:31.780Z,8.20
2019-04-05T00:41:01.313Z,8.10
2019-04-05T00:43:30.797Z,8.10
2019-04-05T00:46:00.407Z,8.10
2019-04-05T00:48:29.905Z,8.10
2019-04-05T00:51:00.443Z,8.10
2019-04-05T00:53:29.965Z,8.10
2019-04-05T00:55:59.480Z,8.10
2019-04-05T00:58:29.029Z,8.00
2019-04-05T01:00:58.575Z,7.90
2019-04-05T01:03:28.091Z,7.90
2019-04-05T01:05:57.527Z,7.80
2019-04-05T01:08:27.371Z,7.80
2019-04-05T01:10:56.842Z,7.80
2019-04-05T01:13:26.821Z,7.70
2019-04-05T01:15:56.273Z,7.80
2019-04-05T01:18:25.744Z,7.70
2019-04-05T01:20:56.803Z,7.80
2019-04-05T01:23:27.468Z,7.70
2019-04-05T01:25:59.939Z,7.70
2019-04-05T01:28:29.502Z,7.70
2019-04-05T01:30:59.041Z,7.70
2019-04-05T01:33:28.522Z,7.60
2019-04-05T01:35:58.011Z,7.50
2019-04-05T01:38:27.650Z,7.50
2019-04-05T01:40:59.716Z,7.50
2019-04-05T01:43:29.360Z,7.50
2019-04-05T01:45:59.341Z,7.40
2019-04-05T01:48:28.914Z,7.40
2019-04-05T01:50:58.541Z,7.40
2019-04-05T01:53:29.060Z,7.30
2019-04-05T01:55:58.553Z,7.30
2019-04-05T01:58:28.183Z,7.30
2019-04-05T02:00:57.633Z,7.30
2019-04-05T02:03:27.097Z,7.20
2019-04-05T02:05:56.694Z,7.30
2019-04-05T02:08:26.486Z,7.30
2019-04-05T02:10:56.395Z,7.30
2019-04-05T02:13:25.901Z,7.20
2019-04-05T02:16:05.694Z,7.20
2019-04-05T02:18:26.447Z,7.20
2019-04-05T02:20:56.136Z,7.20
2019-04-05T02:23:25.576Z,7.30
2019-04-05T02:25:55.027Z,7.20
2019-04-05T02:28:25.527Z,7.20
2019-04-05T02:30:55.100Z,7.30
2019-04-05T02:33:24.527Z,7.30
2019-04-05T02:35:54.126Z,7.20
2019-04-05T02:38:23.673Z,7.20
2019-04-05T02:40:54.064Z,7.20
2019-04-05T02:43:25.566Z,7.20
2019-04-05T02:45:57.042Z,7.20
2019-04-05T02:48:29.432Z,7.30
2019-04-05T02:51:02.196Z,7.30
2019-04-05T02:53:34.082Z,7.30
2019-04-05T02:56:04.467Z,7.40
2019-04-05T02:58:35.009Z,7.40
2019-04-05T03:01:04.680Z,7.40
2019-04-05T03:03:34.659Z,7.40
2019-04-05T03:06:04.816Z,7.40
2019-04-05T03:08:34.792Z,7.40
2019-04-05T03:11:13.889Z,7.40
2019-04-05T03:13:52.133Z,7.40
2019-04-05T03:16:40.018Z,7.30
2019-04-05T03:19:07.128Z,7.30
2019-04-05T03:21:39.807Z,7.30
2019-04-05T03:24:12.496Z,7.20
2019-04-05T03:26:45.711Z,7.10
2019-04-05T03:29:15.568Z,7.00
2019-04-05T03:31:46.677Z,7.00
2019-04-05T03:34:16.459Z,6.90
2019-04-05T03:36:46.490Z,6.90
2019-04-05T03:39:16.405Z,6.90
2019-04-05T03:41:46.291Z,6.80
2019-04-05T03:44:15.857Z,6.80
2019-04-05T03:46:56.230Z,6.70
2019-04-05T03:49:17.006Z,6.60
2019-04-05T03:51:46.510Z,6.60
2019-04-05T03:54:16.109Z,6.50
2019-04-05T03:56:45.948Z,6.40
2019-04-05T03:59:15.423Z,6.40
2019-04-05T04:01:45.642Z,6.40
2019-04-05T04:04:15.710Z,6.40
2019-04-05T04:06:46.906Z,6.40
2019-04-05T04:09:16.612Z,6.30
2019-04-05T04:11:46.113Z,6.30
2019-04-05T04:14:15.593Z,6.30
2019-04-05T04:16:46.892Z,6.30
2019-04-05T04:19:16.481Z,6.20
2019-04-05T04:21:55.334Z,6.20
2019-04-05T04:24:25.055Z,6.10
2019-04-05T04:26:54.912Z,6.10
2019-04-05T04:29:25.015Z,6.10
2019-04-05T04:31:54.533Z,6.00
2019-04-05T04:34:24.284Z,6.00
2019-04-05T04:36:54.154Z,5.90
2019-04-05T04:39:24.104Z,5.90
2019-04-05T04:41:53.782Z,5.90
2019-04-05T04:44:23.733Z,5.90
2019-04-05T04:46:54.681Z,5.90
2019-04-05T04:49:24.456Z,6.00
2019-04-05T04:51:54.303Z,6.00
2019-04-05T04:54:24.065Z,6.10
2019-04-05T04:56:53.923Z,6.10
2019-04-05T04:59:24.232Z,6.20
2019-04-05T05:01:53.754Z,6.30
2019-04-05T05:04:23.745Z,6.30
2019-04-05T05:06:53.292Z,6.40
2019-04-05T05:09:22.825Z,6.50
2019-04-05T05:11:52.553Z,6.60
2019-04-05T05:14:22.321Z,6.60
2019-04-05T05:16:52.328Z,6.70
2019-04-05T05:19:21.933Z,6.80
2019-04-05T05:21:51.515Z,6.80
2019-04-05T05:24:21.153Z,6.90
2019-04-05T05:26:50.902Z,7.00
2019-04-05T05:29:20.911Z,7.10
2019-04-05T05:31:50.477Z,7.20
2019-04-05T05:34:20.087Z,7.30
2019-04-05T05:36:49.754Z,7.40
2019-04-05T05:39:19.525Z,7.50
2019-04-05T05:41:49.050Z,7.60
2019-04-05T05:44:18.484Z,7.70
2019-04-05T05:46:47.982Z,7.80
2019-04-05T05:49:17.969Z,7.90
2019-04-05T05:51:48.533Z,8.00
2019-04-05T05:54:18.155Z,8.10
2019-04-05T05:56:47.661Z,8.20
2019-04-05T05:59:17.118Z,8.30
2019-04-05T06:01:46.673Z,8.40
2019-04-05T06:04:16.144Z,8.50
2019-04-05T06:06:45.670Z,8.60
2019-04-05T06:09:15.294Z,8.70
2019-04-05T06:11:45.822Z,8.80
2019-04-05T06:14:15.325Z,8.80
2019-04-05T06:16:46.896Z,8.90
2019-04-05T06:19:16.419Z,9.00
2019-04-05T06:21:45.921Z,9.10
2019-04-05T06:24:15.515Z,9.20
2019-04-05T06:26:47.004Z,9.40
2019-04-05T06:29:16.529Z,9.50
2019-04-05T06:31:46.128Z,9.70
2019-04-05T06:34:15.659Z,9.90
2019-04-05T06:36:47.545Z,10.10
2019-04-05T06:39:17.048Z,10.20
2019-04-05T06:41:47.002Z,10.40
2019-04-05T06:44:16.485Z,10.60
2019-04-05T06:46:46.155Z,10.80
2019-04-05T06:49:15.608Z,10.90
2019-04-05T06:51:47.128Z,11.00
2019-04-05T06:54:16.768Z,11.10
2019-04-05T06:56:46.280Z,11.30
2019-04-05T06:59:19.066Z,11.40
2019-04-05T07:01:46.889Z,11.50
2019-04-05T07:04:16.757Z,11.70
2019-04-05T07:06:46.218Z,11.70
2019-04-05T07:09:15.710Z,11.80
2019-04-05T07:11:47.439Z,12.00
2019-04-05T07:14:16.922Z,12.30
2019-04-05T07:16:46.426Z,12.20
2019-04-05T07:19:16.026Z,12.30
2019-04-05T07:21:45.497Z,12.40
2019-04-05T07:24:16.026Z,12.50
2019-04-05T07:26:47.038Z,12.70
2019-04-05T07:29:16.828Z,13.00
2019-04-05T07:31:46.367Z,13.10
2019-04-05T07:34:16.162Z,13.40
2019-04-05T07:36:45.668Z,13.70
2019-04-05T07:39:15.170Z,13.70
2019-04-05T07:41:44.996Z,13.80
2019-04-05T07:44:14.565Z,13.90
2019-04-05T07:46:46.552Z,14.10
2019-04-05T07:49:16.007Z,14.10
2019-04-05T07:51:45.695Z,14.20
2019-04-05T07:54:15.182Z,14.20
2019-04-05T07:56:46.221Z,14.20
2019-04-05T07:59:16.307Z,14.40
2019-04-05T08:01:45.772Z,14.50
2019-04-05T08:04:17.781Z,14.70
2019-04-05T08:06:48.894Z,15.10
2019-04-05T08:09:20.402Z,15.20
2019-04-05T08:11:50.359Z,15.50
2019-04-05T08:14:20.635Z,15.40
2019-04-05T08:16:50.142Z,15.50
2019-04-05T08:19:19.781Z,15.70
2019-04-05T08:21:49.248Z,15.80
2019-04-05T08:24:18.747Z,16.00
2019-04-05T08:26:48.401Z,16.00
2019-04-05T08:29:17.893Z,16.00
2019-04-05T08:31:47.372Z,16.00
2019-04-05T08:34:17.069Z,16.10
2019-04-05T08:36:46.532Z,16.10
2019-04-05T08:39:16.012Z,16.20
2019-04-05T08:41:45.726Z,16.40
2019-04-05T08:44:15.218Z,16.40
2019-04-05T08:46:44.902Z,16.70
2019-04-05T08:49:14.446Z,16.30
2019-04-05T08:51:43.943Z,16.60
2019-04-05T08:54:13.585Z,16.70
2019-04-05T08:56:43.163Z,16.70
2019-04-05T08:59:12.680Z,16.80
2019-04-05T09:01:42.585Z,16.60
2019-04-05T09:04:12.083Z,16.60
2019-04-05T09:06:41.950Z,16.80
2019-04-05T09:09:11.439Z,16.80
2019-04-05T09:11:41.272Z,16.80
2019-04-05T09:14:10.745Z,17.00
2019-04-05T09:16:40.570Z,17.30
2019-04-05T09:19:22.760Z,17.30
2019-04-05T09:21:41.141Z,17.30
2019-04-05T09:24:10.669Z,17.00
2019-04-05T09:26:40.613Z,17.00
2019-04-05T09:29:10.068Z,17.00
2019-04-05T09:31:39.692Z,17.10
2019-04-05T09:34:09.189Z,17.10
2019-04-05T09:36:38.647Z,17.30
2019-04-05T09:39:15.400Z,17.40
2019-04-05T09:41:42.762Z,17.40
2019-04-05T09:44:12.240Z,17.40
2019-04-05T09:46:47.969Z,17.60
2019-04-05T09:49:14.371Z,17.90
2019-04-05T09:51:43.832Z,18.00
2019-04-05T09:54:13.398Z,17.90
2019-04-05T09:56:42.910Z,18.10
2019-04-05T09:59:12.528Z,18.00
2019-04-05T10:01:42.390Z,18.30
2019-04-05T10:04:11.882Z,18.20
2019-04-05T10:06:42.414Z,18.40
2019-04-05T10:09:11.938Z,18.40
2019-04-05T10:11:41.398Z,18.30
2019-04-05T10:14:11.255Z,18.20
2019-04-05T10:16:40.741Z,18.20
2019-04-05T10:19:10.220Z,18.30
2019-04-05T10:21:39.847Z,18.40
2019-04-05T10:24:09.331Z,18.30
2019-04-05T10:26:38.784Z,18.10
2019-04-05T10:29:08.301Z,18.20
2019-04-05T10:31:37.781Z,18.50
2019-04-05T10:34:07.263Z,18.60
2019-04-05T10:36:36.785Z,18.50
2019-04-05T10:39:08.561Z,18.60
2019-04-05T10:42:03.192Z,18.60
2019-04-05T10:44:28.421Z,18.30
2019-04-05T10:46:57.933Z,18.30
2019-04-05T10:49:27.521Z,18.20
2019-04-05T10:51:57.071Z,18.40
2019-04-05T10:54:26.585Z,18.20
2019-04-05T10:56:56.453Z,18.40
2019-04-05T10:59:25.991Z,18.60
2019-04-05T11:01:55.835Z,18.50
2019-04-05T11:04:25.320Z,18.70
2019-04-05T11:06:55.033Z,18.70
2019-04-05T11:09:24.564Z,18.80
2019-04-05T11:11:54.029Z,18.70
2019-04-05T11:14:23.578Z,18.80
2019-04-05T11:16:58.582Z,18.80
2019-04-05T11:19:24.177Z,18.70
2019-04-05T11:21:53.686Z,18.80
2019-04-05T11:24:23.227Z,18.80
2019-04-05T11:26:52.881Z,18.70
2019-04-05T11:29:22.427Z,18.80
2019-04-05T11:31:57.249Z,18.80
2019-04-05T11:34:23.364Z,18.90
2019-04-05T11:36:53.132Z,18.90
2019-04-05T11:39:23.085Z,19.00
2019-04-05T11:41:53.596Z,19.00
2019-04-05T11:44:24.141Z,19.00
2019-04-05T11:46:55.742Z,19.00
2019-04-05T11:49:25.834Z,19.10
2019-04-05T11:51:55.347Z,19.10
2019-04-05T11:54:24.970Z,19.00
2019-04-05T11:56:54.417Z,18.80
2019-04-05T11:59:23.897Z,18.90
2019-04-05T12:01:57.902Z,19.10
2019-04-05T12:04:27.448Z,19.10
2019-04-05T12:06:56.991Z,19.20
2019-04-05T12:09:26.501Z,19.10
2019-04-05T12:11:55.966Z,19.30
2019-04-05T12:14:30.511Z,19.30
2019-04-05T12:16:56.794Z,19.40
2019-04-05T12:19:26.293Z,19.50
2019-04-05T12:21:55.820Z,19.50
2019-04-05T12:24:25.574Z,19.40
2019-04-05T12:26:55.067Z,19.50
2019-04-05T12:29:24.577Z,19.50
2019-04-05T12:31:54.615Z,19.40
2019-04-05T12:34:24.343Z,19.50
2019-04-05T12:36:53.836Z,19.50
2019-04-05T12:39:23.338Z,19.40
2019-04-05T12:41:52.951Z,19.60
2019-04-05T12:44:22.542Z,19.50
2019-04-05T12:46:52.031Z,19.50
2019-04-05T12:49:22.598Z,19.30
2019-04-05T12:51:52.078Z,19.40
2019-04-05T12:54:21.561Z,19.50
2019-04-05T12:56:54.079Z,19.40
2019-04-05T12:59:25.186Z,19.40
2019-04-05T13:01:53.505Z,19.30
2019-04-05T13:04:23.012Z,19.30
2019-04-05T13:06:52.921Z,19.20
2019-04-05T13:09:23.551Z,19.30
2019-04-05T13:11:56.431Z,19.30
2019-04-05T13:14:26.499Z,19.30
2019-04-05T13:16:56.723Z,19.40
2019-04-05T13:19:26.233Z,19.50
2019-04-05T13:21:55.758Z,19.40
2019-04-05T13:24:25.342Z,19.50
2019-04-05T13:26:54.817Z,19.50
2019-04-05T13:29:24.354Z,19.30
2019-04-05T13:31:53.945Z,19.30
2019-04-05T13:34:25.468Z,19.40
2019-04-05T13:36:54.598Z,19.50
2019-04-05T13:39:24.068Z,19.50
2019-04-05T13:41:53.830Z,19.30
2019-04-05T13:44:23.342Z,19.20
2019-04-05T13:46:52.965Z,19.10
2019-04-05T13:49:22.443Z,19.00
2019-04-05T13:51:51.924Z,19.00
2019-04-05T13:54:21.837Z,19.00
2019-04-05T13:56:51.312Z,19.00
2019-04-05T13:59:20.761Z,19.00
2019-04-05T14:01:51.465Z,19.00
2019-04-05T14:04:21.494Z,19.00
2019-04-05T14:06:53.713Z,19.00
2019-04-05T14:09:22.951Z,19.00
2019-04-05T14:11:52.480Z,18.90
2019-04-05T14:14:21.914Z,18.80
2019-04-05T14:16:53.947Z,18.80
2019-04-05T14:19:22.834Z,18.70
2019-04-05T14:21:53.615Z,18.70
2019-04-05T14:24:23.587Z,18.70
2019-04-05T14:26:53.511Z,18.70
2019-04-05T14:29:22.965Z,18.70
2019-04-05T14:31:52.446Z,18.70
2019-04-05T14:34:23.676Z,18.70
2019-04-05T14:36:53.163Z,18.60
2019-04-05T14:39:22.958Z,18.70
2019-04-05T14:41:52.681Z,18.70
2019-04-05T14:44:22.208Z,18.50
2019-04-05T14:46:51.946Z,18.60
2019-04-05T14:49:21.504Z,18.50
2019-04-05T14:51:53.898Z,18.60
2019-04-05T14:54:22.119Z,18.50
2019-04-05T14:56:51.908Z,18.50
2019-04-05T14:59:21.418Z,18.40
2019-04-05T15:01:50.883Z,18.40
2019-04-05T15:04:20.557Z,18.30
2019-04-05T15:06:50.601Z,18.30
2019-04-05T15:09:24.864Z,18.10
2019-04-05T15:11:52.134Z,18.10
2019-04-05T15:14:21.600Z,18.10
2019-04-05T15:16:51.059Z,18.00
2019-04-05T15:19:20.791Z,17.90
2019-04-05T15:21:50.305Z,17.90
2019-04-05T15:24:19.932Z,17.80
2019-04-05T15:26:51.390Z,17.80
2019-04-05T15:29:20.574Z,17.70
2019-04-05T15:31:50.089Z,17.70
2019-04-05T15:34:19.774Z,17.60
2019-04-05T15:36:49.238Z,17.60
2019-04-05T15:39:18.728Z,17.50
2019-04-05T15:41:48.348Z,17.40
2019-04-05T15:44:17.864Z,17.30
2019-04-05T15:46:47.334Z,17.30
2019-04-05T15:49:17.086Z,17.20
2019-04-05T15:51:46.560Z,17.20
2019-04-05T15:54:16.016Z,17.10
2019-04-05T15:56:45.673Z,17.10
2019-04-05T15:59:15.134Z,17.00
2019-04-05T16:01:44.638Z,17.00
2019-04-05T16:04:14.130Z,16.90
2019-04-05T16:06:43.739Z,16.90
2019-04-05T16:09:18.128Z,16.80
2019-04-05T16:11:47.879Z,16.80
2019-04-05T16:14:17.423Z,16.80
2019-04-05T16:16:46.848Z,16.70
2019-04-05T16:19:16.512Z,16.70
2019-04-05T16:21:46.010Z,16.60
2019-04-05T16:24:15.523Z,16.50
2019-04-05T16:26:45.060Z,16.50
2019-04-05T16:29:14.537Z,16.40
2019-04-05T16:31:44.006Z,16.30
2019-04-05T16:34:13.529Z,16.20
2019-04-05T16:36:43.194Z,16.10
2019-04-05T16:39:15.859Z,15.90
2019-04-05T16:41:45.526Z,15.80
2019-04-05T16:44:15.015Z,15.70
2019-04-05T16:46:44.687Z,15.60
2019-04-05T16:49:14.257Z,15.40
2019-04-05T16:51:43.817Z,15.40
2019-04-05T16:54:13.684Z,15.30
2019-04-05T16:56:43.209Z,15.20
2019-04-05T16:59:12.704Z,15.20
2019-04-05T17:01:42.291Z,14.90
2019-04-05T17:04:11.766Z,14.90
2019-04-05T17:06:41.273Z,14.90
2019-04-05T17:09:10.955Z,14.80
2019-04-05T17:11:40.446Z,14.70
2019-04-05T17:14:10.009Z,14.60
2019-04-05T17:16:39.543Z,14.50
2019-04-05T17:19:09.103Z,14.40
2019-04-05T17:21:38.943Z,14.40
2019-04-05T17:24:08.415Z,14.40
2019-04-05T17:26:37.964Z,14.20
2019-04-05T17:29:07.575Z,14.10
2019-04-05T17:31:37.048Z,14.10
2019-04-05T17:34:06.578Z,14.10
2019-04-05T17:36:36.289Z,14.00
2019-04-05T17:39:08.169Z,13.90
2019-04-05T17:41:37.669Z,13.80
2019-04-05T17:44:07.219Z,13.70
2019-04-05T17:46:36.914Z,13.70
2019-04-05T17:49:06.389Z,13.60
2019-04-05T17:51:35.981Z,13.50
2019-04-05T17:54:05.592Z,13.50
2019-04-05T17:56:35.814Z,13.50
2019-04-05T17:59:05.401Z,13.50
2019-04-05T18:01:35.274Z,13.40
2019-04-05T18:04:07.505Z,13.40
2019-04-05T18:06:36.956Z,13.40
2019-04-05T18:09:07.610Z,13.40
2019-04-05T18:11:37.115Z,13.40
2019-04-05T18:14:06.619Z,13.40
2019-04-05T18:16:36.153Z,13.40
2019-04-05T18:19:05.735Z,13.40
2019-04-05T18:21:35.227Z,13.40
2019-04-05T18:24:04.727Z,13.40
2019-04-05T18:26:34.346Z,13.30
2019-04-05T18:29:03.904Z,13.20
2019-04-05T18:31:33.386Z,13.10
2019-04-05T18:34:02.997Z,13.00
2019-04-05T18:36:32.568Z,12.90
2019-04-05T18:39:02.508Z,12.90
2019-04-05T18:41:32.094Z,12.80
2019-04-05T18:44:01.815Z,12.70
2019-04-05T18:46:31.352Z,12.60
2019-04-05T18:49:01.340Z,12.50
2019-04-05T18:51:30.855Z,12.40
2019-04-05T18:54:00.668Z,12.30
2019-04-05T18:56:30.360Z,12.20
2019-04-05T18:59:01.969Z,12.20
2019-04-05T19:01:31.578Z,12.20
2019-04-05T19:04:01.265Z,12.10
2019-04-05T19:06:31.289Z,12.00
2019-04-05T19:09:01.353Z,11.90
2019-04-05T19:11:31.154Z,11.80
2019-04-05T19:14:01.570Z,11.80
2019-04-05T19:16:31.719Z,11.70
2019-04-05T19:19:01.603Z,11.70
2019-04-05T19:21:31.445Z,11.60
2019-04-05T19:24:01.249Z,11.60
2019-04-05T19:26:30.765Z,11.50
2019-04-05T19:29:00.527Z,11.50
2019-04-05T19:49:09.992Z,11.00
2019-04-05T19:51:39.583Z,11.10
2019-04-05T19:54:09.284Z,11.00
2019-04-05T19:56:38.781Z,11.00
2019-04-05T19:59:08.299Z,11.00
2019-04-05T20:01:37.931Z,10.90
2019-04-05T20:04:07.439Z,10.90
2019-04-05T20:06:36.963Z,10.90
2019-04-05T20:09:07.683Z,10.90
2019-04-05T20:11:37.185Z,10.80
2019-04-05T20:14:07.028Z,10.80
2019-04-05T20:16:36.509Z,10.80
2019-04-05T20:19:06.523Z,10.80
2019-04-05T20:21:36.123Z,10.80
2019-04-05T20:24:13.792Z,10.90
2019-04-05T20:26:36.948Z,10.90
2019-04-05T20:29:06.616Z,10.90
2019-04-05T20:31:36.139Z,10.80
2019-04-05T20:34:05.605Z,10.70
2019-04-05T20:36:35.077Z,10.60
2019-04-05T20:39:06.241Z,10.60
2019-04-05T20:41:35.727Z,10.50
2019-04-05T20:44:05.615Z,10.60
2019-04-05T20:46:35.149Z,10.50
2019-04-05T20:49:04.959Z,10.50
2019-04-05T20:51:34.475Z,10.40
2019-04-05T20:54:04.310Z,10.40
2019-04-05T20:56:33.782Z,10.30
2019-04-05T20:59:03.341Z,10.30
2019-04-05T21:01:32.863Z,10.20
2019-04-05T21:04:02.393Z,10.20
2019-04-05T21:06:31.883Z,10.20
2019-04-05T21:09:01.453Z,10.20
2019-04-05T21:11:30.965Z,10.10
2019-04-05T21:14:00.431Z,10.00
2019-04-05T21:16:30.137Z,9.90
2019-04-05T21:18:59.639Z,9.90
2019-04-05T21:21:29.133Z,9.80
2019-04-05T21:23:58.883Z,9.80
2019-04-05T21:26:28.387Z,9.80
2019-04-05T21:28:58.153Z,9.80
2019-04-05T21:31:27.652Z,9.80
2019-04-05T21:33:57.146Z,9.80
2019-04-05T21:36:26.797Z,9.80
2019-04-05T21:38:56.284Z,9.90
2019-04-05T21:41:25.798Z,10.00
2019-04-05T21:43:55.643Z,9.90
2019-04-05T21:46:25.148Z,10.00
2019-04-05T21:48:54.839Z,10.00
2019-04-05T21:51:24.736Z,10.10
2019-04-05T21:53:54.383Z,10.00
2019-04-05T21:56:23.928Z,10.00
2019-04-05T21:58:53.516Z,10.00
2019-04-05T22:01:23.878Z,10.00
2019-04-05T22:03:53.422Z,10.00
2019-04-05T22:06:22.951Z,10.00
2019-04-05T22:08:52.566Z,10.00
2019-04-05T22:11:22.108Z,10.00
2019-04-05T22:13:51.618Z,10.00
2019-04-05T22:16:21.334Z,10.00
2019-04-05T22:18:50.822Z,10.00
2019-04-05T22:21:20.371Z,9.90
2019-04-05T22:23:50.010Z,9.90
2019-04-05T22:26:19.493Z,9.90
2019-04-05T22:28:49.184Z,9.90
2019-04-05T22:31:18.741Z,9.90
2019-04-05T22:33:48.187Z,9.90
2019-04-05T22:36:17.703Z,9.80
2019-04-05T22:38:47.324Z,9.80
2019-04-05T22:41:16.820Z,9.70
2019-04-05T22:43:46.545Z,9.70
2019-04-05T22:46:16.081Z,9.70
2019-04-05T22:48:45.632Z,9.70
2019-04-05T22:51:15.291Z,9.60
2019-04-05T22:53:44.814Z,9.60
2019-04-05T22:56:14.324Z,9.60
2019-04-05T22:58:43.903Z,9.50
2019-04-05T23:01:13.439Z,9.50
2019-04-05T23:03:43.412Z,9.40
2019-04-05T23:06:12.899Z,9.40
2019-04-05T23:08:42.771Z,9.40
2019-04-05T23:11:12.263Z,9.40
2019-04-05T23:13:41.747Z,9.30
2019-04-05T23:16:11.379Z,9.30
2019-04-05T23:18:40.873Z,9.30
2019-04-05T23:21:10.397Z,9.20
2019-04-05T23:23:39.999Z,9.20
2019-04-05T23:26:09.511Z,9.20
2019-04-05T23:28:39.041Z,9.20
2019-04-05T23:31:08.547Z,9.20
2019-04-05T23:33:38.053Z,9.20
2019-04-05T23:36:07.561Z,9.20
2019-04-05T23:38:37.694Z,9.10
2019-04-05T23:41:07.151Z,9.10
2019-04-05T23:43:36.774Z,9.00
2019-04-05T23:46:06.261Z,9.00
2019-04-05T23:48:35.725Z,8.90
2019-04-05T23:51:05.582Z,8.90
2019-04-05T23:53:35.071Z,8.90
2019-04-05T23:56:04.846Z,8.90
2019-04-05T23:58:34.321Z,9.00
